Time;durP1;ratioP1;P1;durP2;ratioP2;P2;SDS_P1;SDS_P2;PMS_P1;PMS_P2;Temp;Humidity;BMP_temperature;BMP_pressure;BME280_temperature;BME280_humidity;BME280_pressure;Samples;Min_cycle;Max_cycle;Signal;HPM_P1;HPM_P2
2022/05/25 00:01:35;;;;;;;;;0.50;0.50;;;;;17.20;51.20;101035.59;4948649;28;46270;-73
2022/05/25 00:04:03;;;;;;;;;1.50;0.50;;;;;17.19;51.36;101034.72;4951068;28;46707;-73
2022/05/25 00:06:29;;;;;;;;;0.50;0.50;;;;;17.15;51.20;101033.13;4971066;28;45406;-73
2022/05/25 00:08:54;;;;;;;;;1.00;1.00;;;;;17.12;51.15;101037.84;4960474;28;45453;-73
2022/05/25 00:11:21;;;;;;;;;0.50;0.50;;;;;17.12;51.31;101035.16;4957902;28;45397;-73
2022/05/25 00:13:46;;;;;;;;;1.00;1.00;;;;;17.09;51.25;101043.41;4956793;28;45708;-73
2022/05/25 00:16:12;;;;;;;;;1.50;1.50;;;;;17.06;51.58;101033.66;4960299;28;45614;-73
2022/05/25 00:19:58;;;;;;;;;1.50;1.50;;;;;17.06;51.59;101027.38;4956707;28;45331;-73
2022/05/25 00:21:23;;;;;;;;;0.50;0.50;;;;;17.06;51.80;101025.56;4951005;28;45259;-73
2022/05/25 00:23:48;;;;;;;;;2.50;0.50;;;;;17.04;51.46;101031.06;4942492;28;45297;-73
2022/05/25 00:26:13;;;;;;;;;1.00;1.00;;;;;17.02;51.71;101027.56;4958671;28;45339;-74
2022/05/25 00:28:39;;;;;;;;;2.25;2.00;;;;;17.04;51.89;101028.34;4947688;28;45975;-73
2022/05/25 00:31:04;;;;;;;;;1.00;1.00;;;;;16.97;51.81;101032.34;4941896;28;45459;-73
2022/05/25 00:33:29;;;;;;;;;1.75;1.00;;;;;16.97;51.72;101029.66;4939448;28;45767;-73
2022/05/25 00:35:55;;;;;;;;;1.75;1.75;;;;;16.92;51.84;101022.75;4938427;28;45157;-73
2022/05/25 00:38:20;;;;;;;;;1.00;1.00;;;;;16.94;51.86;101029.81;4940712;28;45245;-73
2022/05/25 00:40:45;;;;;;;;;1.50;1.50;;;;;16.95;51.90;101042.31;4941299;28;45371;-73
2022/05/25 00:43:15;;;;;;;;;1.50;1.50;;;;;16.92;51.70;101041.63;4939010;28;45303;-73
2022/05/25 00:45:45;;;;;;;;;1.00;1.00;;;;;16.90;52.25;101038.16;4952130;28;45375;-73
2022/05/25 00:48:21;;;;;;;;;1.00;1.00;;;;;16.87;51.96;101044.56;4939848;28;45508;-73
2022/05/25 00:53:32;;;;;;;;;1.00;1.00;;;;;16.80;52.43;101044.00;4937094;28;45576;-73
2022/05/25 00:55:58;;;;;;;;;1.00;1.00;;;;;16.85;52.39;101052.72;4940598;28;45466;-73
2022/05/25 00:58:23;;;;;;;;;1.00;1.00;;;;;16.83;52.34;101054.63;4953424;28;45413;-73
2022/05/25 01:00:49;;;;;;;;;1.00;1.00;;;;;16.82;52.21;101060.97;4947681;28;46318;-73
2022/05/25 01:03:15;;;;;;;;;0.25;0.25;;;;;16.79;52.26;101054.84;4935944;28;45460;-73
2022/05/25 01:05:58;;;;;;;;;1.00;1.00;;;;;16.80;52.64;101056.59;4938413;28;45375;-73
2022/05/25 01:08:39;;;;;;;;;1.50;1.50;;;;;16.78;52.41;101058.53;4953264;28;45374;-73
2022/05/25 01:11:25;;;;;;;;;1.00;1.00;;;;;16.77;52.78;101065.75;4956596;28;45494;-73
2022/05/25 01:14:20;;;;;;;;;1.50;1.50;;;;;16.76;52.46;101066.69;4938058;28;45254;-73
2022/05/25 01:17:10;;;;;;;;;1.00;1.00;;;;;16.74;52.56;101068.59;4927151;28;45479;-73
2022/05/25 01:20:00;;;;;;;;;1.00;1.00;;;;;16.76;52.58;101079.31;4949638;28;45331;-73
2022/05/25 01:22:56;;;;;;;;;3.00;2.00;;;;;16.74;52.66;101073.09;4932623;28;47996;-73
2022/05/25 01:25:53;;;;;;;;;1.00;1.00;;;;;16.73;53.03;101072.25;4932374;28;45943;-73
2022/05/25 01:28:31;;;;;;;;;2.75;1.00;;;;;16.74;52.83;101081.19;4937682;28;45332;-73
2022/05/25 01:30:56;;;;;;;;;1.00;1.00;;;;;16.71;53.16;101082.25;4940375;28;45486;-73
2022/05/25 01:33:32;;;;;;;;;1.00;1.00;;;;;16.71;53.27;101076.84;4938900;28;45383;-73
2022/05/25 01:36:09;;;;;;;;;1.75;1.75;;;;;16.68;53.05;101074.31;4935226;28;45323;-73
2022/05/25 01:38:40;;;;;;;;;1.00;1.00;;;;;16.68;53.32;101080.56;4940586;28;45234;-73
2022/05/25 01:41:13;;;;;;;;;3.00;2.00;;;;;16.67;52.91;101083.34;4944807;28;45806;-73
2022/05/25 01:44:00;;;;;;;;;1.00;1.00;;;;;16.62;53.20;101077.31;4932752;28;46388;-73
2022/05/25 01:46:28;;;;;;;;;1.00;1.00;;;;;16.65;53.15;101091.50;4949715;28;45561;-73
2022/05/25 01:48:56;;;;;;;;;1.00;1.00;;;;;16.67;53.27;101092.31;4946393;28;45328;-73
2022/05/25 01:51:29;;;;;;;;;2.00;2.00;;;;;16.65;53.18;101090.63;4947674;28;45533;-73
2022/05/25 01:53:59;;;;;;;;;0.75;0.00;;;;;16.64;53.07;101094.31;4937337;28;46279;-73
2022/05/25 01:56:28;;;;;;;;;1.75;1.50;;;;;16.64;53.40;101097.84;4939877;28;45316;-73
2022/05/25 01:58:58;;;;;;;;;1.00;1.00;;;;;16.64;53.27;101102.38;4952746;28;45387;-73
2022/05/25 02:01:23;;;;;;;;;3.50;1.00;;;;;16.63;53.29;101095.25;4940656;28;45505;-73
2022/05/25 02:06:47;;;;;;;;;1.00;1.00;;;;;16.62;53.55;101094.38;4942655;28;45425;-73
2022/05/25 02:09:29;;;;;;;;;1.00;1.00;;;;;16.60;53.49;101090.88;4953381;28;45345;-73
2022/05/25 02:12:11;;;;;;;;;1.50;1.50;;;;;16.60;53.38;101093.56;4929692;28;45382;-73
2022/05/25 02:14:52;;;;;;;;;1.75;1.25;;;;;16.57;53.66;101098.25;4942852;28;45676;-73
2022/05/25 02:17:31;;;;;;;;;2.00;2.00;;;;;16.56;53.43;101096.53;4950627;28;45412;-73
2022/05/25 02:20:23;;;;;;;;;0.75;0.75;;;;;16.56;53.49;101107.31;4947685;28;45309;-73
2022/05/25 02:22:56;;;;;;;;;1.75;1.00;;;;;16.48;53.58;101096.91;4940050;28;46333;-73
2022/05/25 02:25:29;;;;;;;;;0.75;0.75;;;;;16.49;53.57;101110.31;4938807;28;45566;-73
2022/05/25 02:28:03;;;;;;;;;1.00;1.00;;;;;16.51;53.69;101110.22;4951820;28;45645;-73
2022/05/25 02:30:34;;;;;;;;;1.00;1.00;;;;;16.47;53.55;101104.13;4938732;28;45312;-73
2022/05/25 02:33:09;;;;;;;;;1.00;1.00;;;;;16.51;53.65;101118.31;4944790;28;45514;-73
2022/05/25 02:35:36;;;;;;;;;1.00;1.00;;;;;16.51;53.99;101106.66;4939185;28;45245;-73
2022/05/25 02:38:05;;;;;;;;;1.00;1.00;;;;;16.49;53.81;101113.00;4938773;28;45400;-72
2022/05/25 02:40:34;;;;;;;;;1.00;1.00;;;;;16.47;53.79;101114.00;4939560;28;45429;-73
2022/05/25 02:42:59;;;;;;;;;1.00;1.00;;;;;16.35;53.75;101098.47;4938409;28;45319;-73
2022/05/25 02:45:25;;;;;;;;;1.00;1.00;;;;;16.41;53.89;101119.72;4952164;28;46288;-73
2022/05/25 02:47:50;;;;;;;;;2.50;2.50;;;;;16.36;53.91;101109.19;4947146;28;45227;-73
2022/05/25 02:50:16;;;;;;;;;0.50;0.50;;;;;16.36;53.92;101113.72;4934323;28;45395;-73
2022/05/25 02:52:42;;;;;;;;;0.50;0.50;;;;;16.39;54.06;101127.00;4935727;28;45593;-73
2022/05/25 02:55:08;;;;;;;;;0.00;0.00;;;;;16.37;54.06;101123.50;4934182;28;46010;-73
2022/05/25 02:57:33;;;;;;;;;4.00;1.00;;;;;16.36;53.91;101129.88;4936064;28;45474;-73
2022/05/25 02:59:59;;;;;;;;;1.00;1.00;;;;;16.35;53.86;101134.38;4940100;28;45583;-73
2022/05/25 03:02:25;;;;;;;;;1.25;1.00;;;;;16.32;53.96;101134.50;4946858;28;45402;-73
2022/05/25 03:04:50;;;;;;;;;1.00;1.00;;;;;16.29;54.22;101132.00;4936845;28;47069;-73
2022/05/25 03:07:16;;;;;;;;;1.00;1.00;;;;;16.25;54.35;101136.63;4947717;28;45456;-74
2022/05/25 03:09:41;;;;;;;;;1.00;1.00;;;;;16.29;54.14;101138.25;4938048;28;45363;-74
2022/05/25 03:12:08;;;;;;;;;1.00;1.00;;;;;16.27;54.17;101137.47;4945529;28;45367;-73
2022/05/25 03:14:34;;;;;;;;;1.00;1.00;;;;;16.30;54.18;101141.81;4926739;28;45513;-73
2022/05/25 03:17:10;;;;;;;;;0.75;0.75;;;;;16.25;54.35;101152.81;4925625;28;45531;-75
2022/05/25 03:19:37;;;;;;;;;1.25;1.25;;;;;16.22;54.66;101150.28;4940405;28;45295;-74
2022/05/25 03:22:03;;;;;;;;;1.00;1.00;;;;;16.20;54.38;101151.31;4934147;28;45520;-73
2022/05/25 03:24:28;;;;;;;;;0.25;0.25;;;;;16.22;54.45;101149.41;4933449;28;45480;-74
2022/05/25 03:26:54;;;;;;;;;3.00;1.00;;;;;16.23;54.54;101168.19;4929680;28;45367;-74
2022/05/25 03:29:20;;;;;;;;;2.00;1.00;;;;;16.16;54.57;101155.97;4935293;28;45366;-74
2022/05/25 03:31:46;;;;;;;;;1.25;1.00;;;;;16.23;54.80;101170.88;4937904;28;45458;-74
2022/05/25 03:34:11;;;;;;;;;1.00;1.00;;;;;16.17;54.53;101165.81;4937334;28;45549;-74
2022/05/25 03:36:37;;;;;;;;;1.00;1.00;;;;;16.16;54.83;101157.81;4947715;28;45434;-74
2022/05/25 03:39:03;;;;;;;;;2.25;1.25;;;;;16.17;54.81;101173.00;4936479;28;45403;-74
2022/05/25 03:41:28;;;;;;;;;2.00;1.00;;;;;16.15;54.80;101164.13;4935939;28;45322;-74
2022/05/25 03:43:54;;;;;;;;;1.00;1.00;;;;;16.19;54.95;101176.47;4935989;28;45591;-74
2022/05/25 03:46:19;;;;;;;;;2.00;2.00;;;;;16.19;55.12;101189.94;4932996;28;45454;-74
2022/05/25 03:48:44;;;;;;;;;2.00;2.00;;;;;16.13;55.01;101187.56;4940964;28;45380;-74
2022/05/25 03:51:10;;;;;;;;;2.00;2.00;;;;;16.11;55.04;101191.19;4949210;28;45417;-74
2022/05/25 03:53:35;;;;;;;;;1.00;1.00;;;;;16.12;54.87;101197.44;4950507;28;45861;-74
2022/05/25 03:56:01;;;;;;;;;1.25;1.25;;;;;16.10;55.10;101207.44;4938530;28;45285;-74
2022/05/25 03:58:26;;;;;;;;;3.00;2.00;;;;;16.10;55.17;101210.13;4939020;28;45157;-74
2022/05/25 04:00:52;;;;;;;;;1.00;1.00;;;;;16.07;55.32;101216.53;4940110;28;45461;-74
2022/05/25 04:03:17;;;;;;;;;1.75;1.75;;;;;16.08;55.31;101212.03;4928556;28;45387;-73
2022/05/25 04:05:43;;;;;;;;;1.00;1.00;;;;;16.10;55.46;101215.50;4939101;28;45969;-73
2022/05/25 04:08:10;;;;;;;;;2.00;2.00;;;;;16.11;55.39;101217.25;4940929;28;45491;-73
2022/05/25 04:10:36;;;;;;;;;1.50;1.00;;;;;16.10;55.21;101219.09;4947981;28;45444;-73
2022/05/25 04:13:02;;;;;;;;;1.00;1.00;;;;;16.09;55.50;101211.94;4944624;28;47129;-73
2022/05/25 04:15:31;;;;;;;;;1.00;1.00;;;;;16.11;55.56;101218.13;4938006;28;45755;-73
2022/05/25 04:17:56;;;;;;;;;2.00;1.00;;;;;16.10;55.74;101215.50;4940885;28;45410;-73
2022/05/25 04:20:24;;;;;;;;;3.00;1.00;;;;;16.10;55.65;101213.72;4944485;28;45824;-73
2022/05/25 04:22:50;;;;;;;;;0.00;0.00;;;;;16.08;55.49;101212.88;4939879;28;46687;-73
2022/05/25 04:25:18;;;;;;;;;2.00;1.00;;;;;16.11;55.62;101218.13;4989732;28;45472;-73
2022/05/25 04:27:45;;;;;;;;;1.00;1.00;;;;;16.06;55.93;101211.22;4945602;28;45296;-73
2022/05/25 04:30:15;;;;;;;;;1.00;1.00;;;;;16.10;55.75;101224.47;4938603;28;45352;-73
2022/05/25 04:32:41;;;;;;;;;2.25;2.25;;;;;16.05;55.49;101218.41;4941545;28;45702;-73
2022/05/25 04:35:08;;;;;;;;;1.75;1.75;;;;;16.08;55.71;101229.03;4961656;28;45474;-73
2022/05/25 04:37:49;;;;;;;;;2.00;2.00;;;;;16.05;55.90;101228.31;4932576;28;45424;-73
2022/05/25 04:40:17;;;;;;;;;1.50;1.50;;;;;16.06;56.00;101236.31;4939672;28;45440;-73
2022/05/25 04:42:43;;;;;;;;;1.00;1.00;;;;;16.07;55.87;101245.28;4964321;28;46279;-72
2022/05/25 04:45:10;;;;;;;;;3.00;2.00;;;;;16.00;56.18;101233.06;4965615;28;45481;-72
2022/05/25 04:47:42;;;;;;;;;2.00;2.00;;;;;16.05;56.08;101247.16;4974837;28;45318;-76
2022/05/25 04:50:10;;;;;;;;;2.00;2.00;;;;;16.01;56.33;101240.19;4953974;28;45458;-76
2022/05/25 04:52:37;;;;;;;;;1.00;1.00;;;;;16.02;56.46;101245.50;4952247;28;45306;-70
2022/05/25 04:55:04;;;;;;;;;3.00;2.00;;;;;16.04;56.39;101250.84;4942377;28;45237;-75
2022/05/25 04:57:29;;;;;;;;;3.00;2.00;;;;;16.06;56.26;101248.94;4939641;28;45324;-76
2022/05/25 05:00:00;;;;;;;;;2.00;2.00;;;;;16.06;56.23;101254.31;4939817;28;46691;-76
2022/05/25 05:02:29;;;;;;;;;4.00;2.50;;;;;16.07;56.25;101256.03;4931629;28;46085;-76
2022/05/25 05:04:55;;;;;;;;;4.50;3.00;;;;;16.05;56.34;101261.50;4951133;28;45692;-76
2022/05/25 05:07:29;;;;;;;;;4.25;2.75;;;;;16.05;56.28;101266.88;4942931;28;45513;-76
2022/05/25 05:09:54;;;;;;;;;3.00;2.75;;;;;16.05;56.55;101272.28;4936588;28;45427;-76
2022/05/25 05:12:20;;;;;;;;;5.00;2.75;;;;;16.03;56.32;101263.41;4948395;28;46172;-76
2022/05/25 05:14:46;;;;;;;;;4.00;3.00;;;;;16.06;56.62;101270.47;4945507;28;45429;-76
2022/05/25 05:17:11;;;;;;;;;2.75;2.75;;;;;16.07;56.66;101269.50;4947091;28;45329;-76
2022/05/25 05:19:37;;;;;;;;;2.75;2.75;;;;;16.04;56.56;101262.47;4934153;28;45823;-76
2022/05/25 05:22:02;;;;;;;;;2.50;1.25;;;;;16.08;56.51;101272.13;4937542;28;46186;-76
2022/05/25 05:24:30;;;;;;;;;2.00;2.00;;;;;16.11;56.54;101282.75;4929052;28;45428;-76
2022/05/25 05:26:56;;;;;;;;;2.75;2.75;;;;;16.14;56.67;101284.44;4945422;28;45412;-76
2022/05/25 05:29:24;;;;;;;;;4.00;3.25;;;;;16.12;56.28;101289.00;4922977;28;45596;-75
2022/05/25 05:31:50;;;;;;;;;3.00;2.00;;;;;16.14;56.21;101281.75;4994366;28;47294;-75
2022/05/25 05:34:15;;;;;;;;;3.75;3.75;;;;;16.20;55.93;101285.97;4939176;28;45419;-76
2022/05/25 05:36:42;;;;;;;;;2.75;2.75;;;;;16.20;56.02;101288.66;4931841;28;45363;-75
2022/05/25 05:39:10;;;;;;;;;3.25;2.50;;;;;16.19;55.69;101281.53;4935880;28;45815;-76
2022/05/25 05:41:42;;;;;;;;;2.75;2.00;;;;;16.18;55.74;101277.09;4946711;28;47142;-76
2022/05/25 05:44:11;;;;;;;;;2.25;2.25;;;;;16.22;56.07;101279.56;4946018;28;45563;-75
2022/05/25 05:46:41;;;;;;;;;3.00;3.00;;;;;16.25;55.97;101279.41;4935951;28;45408;-72
2022/05/25 05:49:07;;;;;;;;;3.00;3.00;;;;;16.27;55.65;101274.84;4938370;28;45494;-72
2022/05/25 05:51:32;;;;;;;;;3.25;2.25;;;;;16.29;55.50;101275.63;4948079;28;45715;-72
2022/05/25 05:53:58;;;;;;;;;4.00;4.00;;;;;16.28;55.37;101268.50;4941388;28;45530;-72
2022/05/25 05:56:23;;;;;;;;;3.00;3.00;;;;;16.29;55.55;101266.69;4942990;28;45467;-72
2022/05/25 05:58:49;;;;;;;;;1.00;1.00;;;;;16.30;55.18;101266.63;4936984;28;45452;-71
2022/05/25 06:01:14;;;;;;;;;2.00;1.00;;;;;16.35;55.33;101279.84;4940719;28;45506;-72
2022/05/25 06:03:39;;;;;;;;;4.00;1.50;;;;;16.33;55.23;101273.66;4950330;28;45387;-72
2022/05/25 06:06:05;;;;;;;;;5.50;2.00;;;;;16.36;55.34;101280.75;4941520;28;45856;-71
2022/05/25 06:08:30;;;;;;;;;2.25;2.25;;;;;16.33;55.05;101272.81;4935522;28;45277;-71
2022/05/25 06:10:57;;;;;;;;;2.00;2.00;;;;;16.37;55.13;101282.47;4938598;28;45439;-71
2022/05/25 06:13:22;;;;;;;;;2.00;1.00;;;;;16.37;54.89;101287.84;4931463;28;45468;-71
2022/05/25 06:21:21;;;;;;;;;2.00;2.00;;;;;16.40;54.68;101293.97;4938391;28;46039;-71
2022/05/25 06:23:47;;;;;;;;;5.00;3.00;;;;;16.47;54.69;101310.72;4939709;28;45638;-71
2022/05/25 06:26:15;;;;;;;;;2.00;2.00;;;;;16.41;54.41;101295.72;4946507;28;45435;-71
2022/05/25 06:28:41;;;;;;;;;4.50;3.50;;;;;16.53;54.31;101321.22;4932878;28;45447;-73
2022/05/25 06:31:07;;;;;;;;;2.50;2.50;;;;;16.51;54.35;101317.72;4937789;28;47269;-73
2022/05/25 06:33:32;;;;;;;;;3.75;3.75;;;;;16.53;54.48;101321.22;4931503;28;45461;-73
2022/05/25 06:36:17;;;;;;;;;2.00;2.00;;;;;16.57;54.21;101325.53;4935070;28;45292;-73
2022/05/25 06:38:42;;;;;;;;;3.00;2.75;;;;;16.57;54.60;101330.91;4947537;28;45486;-74
2022/05/25 06:41:08;;;;;;;;;3.00;3.00;;;;;16.59;54.51;101328.09;4936840;28;45523;-71
2022/05/25 06:43:34;;;;;;;;;2.00;2.00;;;;;16.62;54.23;101338.75;4949772;28;45374;-71
2022/05/25 06:45:59;;;;;;;;;3.25;2.00;;;;;16.64;53.81;101334.19;4947172;28;45366;-71
2022/05/25 06:48:24;;;;;;;;;2.00;2.00;;;;;16.65;53.73;101347.56;4940304;28;45732;-72
2022/05/25 06:50:50;;;;;;;;;2.00;2.00;;;;;16.69;53.57;101348.31;4942726;28;45762;-72
2022/05/25 06:53:15;;;;;;;;;3.00;3.00;;;;;16.63;53.61;101341.38;4939828;28;45509;-72
2022/05/25 06:55:53;;;;;;;;;3.00;2.00;;;;;16.72;53.67;101360.75;4942897;28;45452;-71
2022/05/25 06:58:18;;;;;;;;;2.00;2.00;;;;;16.73;53.63;101357.13;4935125;28;45625;-71
2022/05/25 07:00:44;;;;;;;;;2.75;2.75;;;;;16.75;53.42;101345.28;4936651;28;46404;-71
2022/05/25 07:03:09;;;;;;;;;2.00;1.00;;;;;16.75;53.57;101352.53;4936719;28;46808;-72
2022/05/25 07:05:34;;;;;;;;;2.00;1.75;;;;;16.75;53.71;101353.38;4938049;28;45538;-71
2022/05/25 07:08:00;;;;;;;;;3.75;3.75;;;;;16.84;53.28;101362.88;4947545;28;45414;-72
2022/05/25 07:10:26;;;;;;;;;3.25;3.00;;;;;16.86;53.40;101358.31;4946399;28;45665;-71
2022/05/25 07:12:52;;;;;;;;;1.75;1.75;;;;;16.88;53.37;101356.41;4933434;28;45564;-75
2022/05/25 07:15:18;;;;;;;;;2.00;2.00;;;;;16.92;53.43;101355.28;4937508;28;45856;-75
2022/05/25 07:17:44;;;;;;;;;1.00;1.00;;;;;16.94;53.43;101360.59;4943326;28;45436;-74
2022/05/25 07:20:10;;;;;;;;;2.00;1.00;;;;;16.94;53.04;101363.28;4931228;28;45968;-75
2022/05/25 07:22:36;;;;;;;;;1.50;1.50;;;;;16.94;52.88;101366.00;4943634;28;45351;-74
2022/05/25 07:25:02;;;;;;;;;0.25;0.25;;;;;16.97;53.05;101371.25;4939565;28;45428;-75
2022/05/25 07:27:27;;;;;;;;;1.00;1.00;;;;;17.00;52.96;101377.34;4934577;28;45409;-72
2022/05/25 07:30:02;;;;;;;;;2.00;0.50;;;;;17.06;52.75;101384.28;4942889;28;46398;-73
2022/05/25 07:32:29;;;;;;;;;1.75;0.75;;;;;17.09;52.17;101391.34;4917510;28;45719;-73
2022/05/25 07:35:01;;;;;;;;;1.00;1.00;;;;;17.09;52.00;101391.34;4953746;28;44935;-74
2022/05/25 07:37:37;;;;;;;;;0.50;0.25;;;;;17.13;51.71;101392.94;4939058;28;45355;-73
2022/05/25 07:40:31;;;;;;;;;0.25;0.25;;;;;17.14;51.80;101400.06;4939141;28;47033;-73
2022/05/25 07:43:02;;;;;;;;;1.00;1.00;;;;;17.17;51.75;101400.81;4946728;28;45827;-76
2022/05/25 07:45:28;;;;;;;;;1.00;1.00;;;;;17.19;51.83;101393.53;4935674;28;45334;-72
2022/05/25 07:47:54;;;;;;;;;0.00;0.00;;;;;17.23;51.75;101396.94;4935871;28;45887;-72
2022/05/25 07:50:23;;;;;;;;;0.00;0.00;;;;;17.32;51.25;101401.84;4939648;28;46139;-66
2022/05/25 07:52:52;;;;;;;;;0.50;0.25;;;;;17.38;51.30;101390.75;4934142;28;45691;-66
2022/05/25 07:55:17;;;;;;;;;0.00;0.00;;;;;17.39;51.22;101395.22;4943203;28;45406;-66
2022/05/25 07:57:43;;;;;;;;;1.00;0.00;;;;;17.47;51.10;101392.09;4947607;28;45419;-66
2022/05/25 08:00:10;;;;;;;;;0.00;0.00;;;;;17.49;51.29;101398.31;4938410;28;45518;-66
2022/05/25 08:05:44;;;;;;;;;0.00;0.00;;;;;17.63;50.34;101404.84;4934980;28;45559;-66
2022/05/25 08:08:20;;;;;;;;;0.00;0.00;;;;;17.69;50.63;101412.59;4941594;28;45611;-66
2022/05/25 08:10:58;;;;;;;;;0.00;0.00;;;;;17.73;50.23;101412.38;4937650;28;46053;-67
2022/05/25 08:13:23;;;;;;;;;0.75;0.75;;;;;17.80;50.15;101422.88;4936923;28;45648;-68
2022/05/25 08:15:49;;;;;;;;;1.00;1.00;;;;;17.85;50.02;101415.41;4946104;28;45463;-66
2022/05/25 08:18:16;;;;;;;;;0.00;0.00;;;;;17.91;50.22;101418.69;4941154;28;45538;-67
2022/05/25 08:20:43;;;;;;;;;0.75;0.50;;;;;17.97;50.30;101422.88;4939896;28;46235;-69
2022/05/25 08:23:11;;;;;;;;;1.00;0.00;;;;;18.00;50.28;101411.06;4946236;28;45384;-68
2022/05/25 08:25:37;;;;;;;;;0.50;0.00;;;;;18.01;50.22;101407.38;4948634;28;45470;-69
2022/05/25 08:28:04;;;;;;;;;0.00;0.00;;;;;18.06;49.94;101405.31;4945862;28;45565;-70
2022/05/25 08:30:32;;;;;;;;;0.00;0.00;;;;;18.11;50.05;101403.25;4949605;28;46345;-71
2022/05/25 08:32:58;;;;;;;;;0.00;0.00;;;;;18.16;50.25;101401.19;4947248;28;45451;-67
2022/05/25 08:35:23;;;;;;;;;0.00;0.00;;;;;18.15;49.50;101402.13;4947040;28;45545;-67
2022/05/25 08:37:49;;;;;;;;;0.75;0.75;;;;;18.17;49.64;101405.59;4934375;28;45474;-66
2022/05/25 08:40:18;;;;;;;;;0.75;0.00;;;;;18.25;49.63;101397.09;4941569;28;48300;-66
2022/05/25 08:42:58;;;;;;;;;0.00;0.00;;;;;18.29;49.39;101399.56;4943380;28;45713;-66
2022/05/25 08:45:33;;;;;;;;;2.00;0.00;;;;;18.30;49.43;101395.03;4954811;28;45407;-66
2022/05/25 08:48:01;;;;;;;;;1.00;1.00;;;;;18.36;48.73;101393.81;4957910;28;45362;-66
2022/05/25 08:50:29;;;;;;;;;0.50;0.50;;;;;18.35;49.16;101402.88;4955668;28;47348;-66
2022/05/25 08:52:57;;;;;;;;;0.50;0.00;;;;;18.43;47.86;101412.31;4928428;28;45546;-66
2022/05/25 08:56:01;;;;;;;;;0.75;0.75;;;;;18.46;48.20;101392.34;4933975;28;45549;-66
2022/05/25 08:58:45;;;;;;;;;0.00;0.00;;;;;18.49;48.11;101403.88;4948561;28;45472;-66
2022/05/25 09:01:14;;;;;;;;;1.00;0.00;;;;;18.48;48.09;101404.81;4936808;28;46126;-66
2022/05/25 09:03:55;;;;;;;;;1.00;1.00;;;;;18.50;48.09;101405.59;4933197;28;45857;-66
2022/05/25 09:06:33;;;;;;;;;0.00;0.00;;;;;18.53;47.18;101412.69;4937872;28;45437;-66
2022/05/25 09:09:12;;;;;;;;;1.00;0.00;;;;;18.54;46.59;101405.44;4929170;28;45728;-66
2022/05/25 09:11:49;;;;;;;;;0.00;0.00;;;;;18.57;46.74;101426.91;4939665;28;46316;-66
2022/05/25 09:14:24;;;;;;;;;0.00;0.00;;;;;18.60;46.33;101418.63;4936056;28;45479;-66
2022/05/25 09:16:54;;;;;;;;;0.00;0.00;;;;;18.61;46.70;101421.25;4932731;28;45395;-66
2022/05/25 09:19:28;;;;;;;;;0.00;0.00;;;;;18.59;46.62;101409.63;4934901;28;45384;-66
2022/05/25 09:21:58;;;;;;;;;0.50;0.00;;;;;18.63;46.12;101419.31;4934015;28;48064;-66
2022/05/25 09:24:26;;;;;;;;;0.00;0.00;;;;;18.66;45.94;101418.25;4929410;28;45564;-66
2022/05/25 09:26:52;;;;;;;;;0.00;0.00;;;;;18.66;45.97;101416.47;4935307;28;45749;-66
2022/05/25 09:29:19;;;;;;;;;1.00;0.00;;;;;18.66;45.74;101407.44;4931096;28;45649;-66
2022/05/25 09:32:07;;;;;;;;;0.00;0.00;;;;;18.71;45.31;101405.38;4954745;28;46984;-66
2022/05/25 09:35:01;;;;;;;;;0.00;0.00;;;;;18.73;45.04;101411.56;4933637;28;45368;-66
2022/05/25 09:37:36;;;;;;;;;0.00;0.00;;;;;18.74;44.13;101407.91;4933181;28;45455;-66
2022/05/25 09:40:07;;;;;;;;;0.00;0.00;;;;;18.74;45.16;101405.19;4934472;28;45598;-68
2022/05/25 09:42:35;;;;;;;;;0.00;0.00;;;;;18.77;44.81;101405.03;4939620;28;46451;-67
2022/05/25 09:45:00;;;;;;;;;0.00;0.00;;;;;18.85;44.84;101427.13;4949229;28;45410;-67
2022/05/25 09:47:42;;;;;;;;;0.00;0.00;;;;;18.83;44.24;101406.56;4952501;28;45342;-67
2022/05/25 09:50:16;;;;;;;;;0.00;0.00;;;;;18.88;44.63;101418.84;4941328;28;45681;-67
2022/05/25 09:52:47;;;;;;;;;0.00;0.00;;;;;18.93;43.45;101425.81;4937769;28;46435;-67
2022/05/25 09:55:24;;;;;;;;;0.75;0.75;;;;;18.90;43.59;101423.31;4948474;28;45318;-68
2022/05/25 09:58:00;;;;;;;;;0.00;0.00;;;;;18.92;43.98;101419.56;4931898;28;46197;-70
2022/05/25 10:00:42;;;;;;;;;0.00;0.00;;;;;18.94;43.33;101422.16;4939175;28;45535;-69
2022/05/25 10:03:10;;;;;;;;;0.00;0.00;;;;;18.92;43.48;101432.22;4937414;28;48136;-69
2022/05/25 10:05:54;;;;;;;;;0.00;0.00;;;;;18.95;43.20;101437.44;4943966;28;46001;-69
2022/05/25 10:08:28;;;;;;;;;0.50;0.00;;;;;18.95;43.12;101430.19;4933278;28;46035;-69
2022/05/25 10:11:27;;;;;;;;;1.00;0.00;;;;;18.94;43.33;101411.34;4934499;28;45543;-71
2022/05/25 10:13:55;;;;;;;;;0.00;0.00;;;;;19.03;44.02;101416.25;4935529;28;47119;-69
2022/05/25 10:16:25;;;;;;;;;0.25;0.00;;;;;19.04;43.66;101408.03;4947745;28;45565;-69
2022/05/25 10:18:51;;;;;;;;;0.00;0.00;;;;;19.08;43.49;101414.16;4932541;28;45398;-69
2022/05/25 10:21:25;;;;;;;;;0.00;0.00;;;;;19.12;43.09;101420.25;4922810;28;45507;-69
2022/05/25 10:23:52;;;;;;;;;0.00;0.00;;;;;19.15;43.39;101430.91;4928414;28;45703;-69
2022/05/25 10:26:32;;;;;;;;;0.00;0.00;;;;;19.18;43.62;101425.31;4927189;28;45819;-69
2022/05/25 10:29:06;;;;;;;;;0.25;0.00;;;;;19.20;43.60;101421.53;4934337;28;45665;-69
2022/05/25 10:37:22;;;;;;;;;0.25;0.25;;;;;19.26;42.91;101425.72;4938380;28;45273;-68
2022/05/25 10:39:53;;;;;;;;;0.75;0.00;;;;;19.29;42.77;101430.97;4935571;28;45443;-68
2022/05/25 10:42:28;;;;;;;;;0.00;0.00;;;;;19.33;42.62;101431.66;4933092;28;45635;-68
2022/05/25 10:45:35;;;;;;;;;2.00;0.00;;;;;19.37;43.10;101425.09;4937057;28;47030;-69
2022/05/25 10:48:15;;;;;;;;;0.00;0.00;;;;;19.38;42.62;101418.75;4983112;28;45906;-68
2022/05/25 10:50:49;;;;;;;;;0.00;0.00;;;;;19.41;42.37;101426.66;4934827;28;45839;-68
2022/05/25 10:53:20;;;;;;;;;0.00;0.00;;;;;19.43;42.38;101413.94;4943538;28;45830;-69
2022/05/25 10:56:11;;;;;;;;;0.00;0.00;;;;;19.43;42.89;101416.63;4937301;28;45345;-68
2022/05/25 10:58:57;;;;;;;;;7.50;5.00;;;;;19.46;42.93;101402.03;4935665;28;45431;-68
2022/05/25 11:01:46;;;;;;;;;2.00;2.00;;;;;19.52;43.36;101423.34;4945347;28;45616;-68
2022/05/25 11:04:40;;;;;;;;;0.00;0.00;;;;;19.53;42.47;101428.66;4933705;28;45549;-68
2022/05/25 11:07:33;;;;;;;;;0.00;0.00;;;;;19.54;42.19;101433.09;4923517;28;46418;-68
2022/05/25 11:10:43;;;;;;;;;0.50;0.00;;;;;19.58;42.17;101414.84;4949893;28;45706;-68
2022/05/25 11:13:11;;;;;;;;;0.00;0.00;;;;;19.60;42.28;101423.75;4925072;28;45610;-68
2022/05/25 11:16:14;;;;;;;;;0.00;0.00;;;;;19.64;42.29;101430.72;4944185;28;45602;-68
2022/05/25 11:19:08;;;;;;;;;0.00;0.00;;;;;19.62;42.28;101417.28;4934549;28;45618;-68
2022/05/25 11:21:40;;;;;;;;;1.00;1.00;;;;;19.69;41.76;101419.63;4940007;28;45518;-68
2022/05/25 11:24:13;;;;;;;;;0.00;0.00;;;;;19.72;41.94;101419.44;4937323;28;45355;-68
2022/05/25 11:26:53;;;;;;;;;0.00;0.00;;;;;19.74;41.78;101428.34;4942075;28;45403;-68
2022/05/25 11:29:37;;;;;;;;;2.00;0.00;;;;;19.78;41.81;101428.09;4941215;28;45481;-68
2022/05/25 11:32:08;;;;;;;;;0.00;0.00;;;;;19.79;41.14;101428.97;4918363;28;45502;-69
2022/05/25 11:34:45;;;;;;;;;0.00;0.00;;;;;19.80;42.17;101423.47;4954816;28;45282;-68
2022/05/25 11:37:35;;;;;;;;;1.00;1.00;;;;;19.84;41.81;101423.28;4935529;28;45438;-68
2022/05/25 11:40:25;;;;;;;;;2.50;1.75;;;;;19.87;41.30;101423.97;4929000;28;45738;-69
2022/05/25 11:43:17;;;;;;;;;0.00;0.00;;;;;19.87;40.88;101423.97;4926078;28;45854;-67
2022/05/25 11:46:02;;;;;;;;;0.75;0.75;;;;;19.91;41.44;101414.69;4965488;28;45492;-67
2022/05/25 11:48:46;;;;;;;;;1.25;1.25;;;;;19.96;41.36;101423.41;4931053;28;45976;-69
2022/05/25 11:51:14;;;;;;;;;0.00;0.00;;;;;20.01;41.27;101420.41;4917814;28;45710;-67
2022/05/25 11:53:59;;;;;;;;;0.50;0.00;;;;;20.04;41.46;101422.06;4934191;28;45424;-67
2022/05/25 11:56:43;;;;;;;;;6.75;6.00;;;;;20.07;41.50;101420.03;4925093;28;45764;-69
2022/05/25 11:59:23;;;;;;;;;0.00;0.00;;;;;20.13;40.87;101418.75;4935930;28;45447;-66
2022/05/25 12:01:49;;;;;;;;;0.50;0.00;;;;;20.16;40.71;101424.00;4943797;28;46527;-66
2022/05/25 12:04:33;;;;;;;;;0.00;0.00;;;;;20.15;41.01;101406.88;4939554;28;45458;-68